Terminal Aerodrome Forecast
Issued by NWS

Home | Current Version | Previous Version | Text Only | Print | Product List | Glossary On
Versions: 1 2 3 4 5 6 7 8 9 10 11 12 13 14 15
000
FTUS46 KMFR 261700
TAFRBG
TAF
KRBG 261737Z 2618/2718 15003KT P6SM SKC
     FM262200 01011KT P6SM SKC
     FM270400 36003KT P6SM SKC=

USA.gov is the U.S. government's official web portal to all federal, state and local government web resources and services.